Time;durP1;ratioP1;P1;durP2;ratioP2;P2;SDS_P1;SDS_P2;PMS_P1;PMS_P2;Temp;Humidity;BMP_temperature;BMP_pressure;BME280_temperature;BME280_humidity;BME280_pressure;Samples;Min_cycle;Max_cycle;Signal;HPM_P1;HPM_P2
2021/09/24 00:01:25;;;;;;;10.95;2.80;;;13.30;99.90;;;;;;5147693;27;20043;-58
2021/09/24 00:03:51;;;;;;;14.95;3.17;;;13.30;99.90;;;;;;5148027;27;20122;-59
2021/09/24 00:06:18;;;;;;;13.20;2.83;;;13.30;99.90;;;;;;5128931;27;20141;-59
2021/09/24 00:08:44;;;;;;;13.95;3.17;;;13.30;99.90;;;;;;5145467;27;20260;-59
2021/09/24 00:11:10;;;;;;;12.75;2.83;;;13.30;99.90;;;;;;5146475;27;20072;-60
2021/09/24 00:13:36;;;;;;;17.88;3.50;;;13.30;99.90;;;;;;5140806;27;20402;-60
2021/09/24 00:16:02;;;;;;;20.35;3.20;;;13.30;99.90;;;;;;5142600;27;20086;-61
2021/09/24 00:18:28;;;;;;;20.85;4.10;;;13.30;99.90;;;;;;5143964;27;20101;-60
2021/09/24 00:20:54;;;;;;;14.68;3.15;;;13.30;99.90;;;;;;5119219;27;20153;-60
2021/09/24 00:23:21;;;;;;;13.80;2.92;;;13.30;99.90;;;;;;5138769;27;20058;-61
2021/09/24 00:25:47;;;;;;;19.90;3.50;;;13.30;99.90;;;;;;5141153;27;20414;-61
2021/09/24 00:28:13;;;;;;;16.40;2.97;;;13.40;99.90;;;;;;5143358;27;20051;-60
2021/09/24 00:30:39;;;;;;;15.65;3.08;;;13.40;99.90;;;;;;5135403;27;20650;-60
2021/09/24 00:33:05;;;;;;;15.18;3.50;;;13.40;99.90;;;;;;5144374;27;20043;-61
2021/09/24 00:35:31;;;;;;;19.45;3.70;;;13.40;99.90;;;;;;5143693;27;20047;-60
2021/09/24 00:37:57;;;;;;;13.27;3.40;;;13.40;99.90;;;;;;5147139;27;20299;-60
2021/09/24 00:40:24;;;;;;;14.65;3.45;;;13.40;99.90;;;;;;5143604;27;20046;-61
2021/09/24 00:42:55;;;;;;;13.93;3.25;;;13.30;99.90;;;;;;5131311;27;20043;-59
2021/09/24 00:45:22;;;;;;;17.05;3.60;;;13.40;99.90;;;;;;5109692;27;20049;-59
2021/09/24 00:47:48;;;;;;;18.13;3.55;;;13.40;99.90;;;;;;5145564;27;20126;-60
2021/09/24 00:50:14;;;;;;;13.15;3.92;;;13.40;99.90;;;;;;5145991;27;20061;-59
2021/09/24 00:52:40;;;;;;;20.20;3.60;;;13.40;99.90;;;;;;5144611;27;20055;-58
2021/09/24 00:55:09;;;;;;;12.35;3.83;;;13.40;99.90;;;;;;5134464;27;20047;-59
2021/09/24 00:57:35;;;;;;;12.55;3.30;;;13.30;99.90;;;;;;5142010;27;20526;-59
2021/09/24 01:00:02;;;;;;;13.07;3.20;;;13.40;99.90;;;;;;5142010;27;20046;-59
2021/09/24 01:02:29;;;;;;;13.82;3.10;;;13.40;99.90;;;;;;5141987;27;20050;-59
2021/09/24 01:04:56;;;;;;;11.45;3.35;;;13.40;99.90;;;;;;5139673;27;20057;-59
2021/09/24 01:07:22;;;;;;;15.65;3.25;;;13.40;99.90;;;;;;5140906;27;20050;-60
2021/09/24 01:09:51;;;;;;;14.38;3.88;;;13.40;99.90;;;;;;5125904;27;20054;-59
2021/09/24 01:12:23;;;;;;;16.63;3.65;;;13.40;99.90;;;;;;5140922;27;20272;-59
2021/09/24 01:15:00;;;;;;;12.75;3.38;;;13.40;99.90;;;;;;5145364;27;20157;-60
2021/09/24 01:17:26;;;;;;;13.45;3.25;;;13.40;99.90;;;;;;5137686;27;20051;-59
2021/09/24 01:19:52;;;;;;;16.00;3.53;;;13.40;99.90;;;;;;5123118;27;20089;-60
2021/09/24 01:22:19;;;;;;;13.35;3.92;;;13.40;99.90;;;;;;5137056;27;20398;-59
2021/09/24 01:24:48;;;;;;;12.85;4.10;;;13.40;99.90;;;;;;5143565;27;20073;-61
2021/09/24 01:27:14;;;;;;;16.17;3.85;;;13.50;99.90;;;;;;5136580;27;20089;-60
2021/09/24 01:29:40;;;;;;;16.55;3.70;;;13.50;99.90;;;;;;5106239;27;20050;-60
2021/09/24 01:32:07;;;;;;;18.15;4.03;;;13.50;99.90;;;;;;5135872;27;20795;-60
2021/09/24 01:34:34;;;;;;;17.23;3.80;;;13.50;99.90;;;;;;5141963;27;20058;-59
2021/09/24 01:37:00;;;;;;;14.38;3.70;;;13.50;99.90;;;;;;5129921;27;20070;-59
2021/09/24 01:39:26;;;;;;;17.25;3.70;;;13.50;99.90;;;;;;5126338;27;20049;-61
2021/09/24 01:41:52;;;;;;;17.00;4.55;;;13.50;99.90;;;;;;5142759;27;20046;-61
2021/09/24 01:44:18;;;;;;;23.63;4.65;;;13.50;99.90;;;;;;5143709;27;20095;-61
2021/09/24 01:46:46;;;;;;;17.85;4.72;;;13.60;99.90;;;;;;5111878;27;20065;-61
2021/09/24 01:49:13;;;;;;;16.17;4.70;;;13.60;99.90;;;;;;5144892;27;20055;-61
2021/09/24 01:51:42;;;;;;;20.10;5.18;;;13.60;99.90;;;;;;5150618;27;20055;-61
2021/09/24 01:54:12;;;;;;;18.63;4.80;;;13.60;99.90;;;;;;5144028;27;20050;-61
2021/09/24 01:56:39;;;;;;;17.42;4.95;;;13.60;99.90;;;;;;5146027;27;20038;-61
2021/09/24 01:59:05;;;;;;;17.15;4.38;;;13.70;99.90;;;;;;5147234;27;20046;-61
2021/09/24 02:01:31;;;;;;;16.30;4.30;;;13.70;99.90;;;;;;5142622;27;20051;-60
2021/09/24 02:04:10;;;;;;;13.70;4.68;;;13.70;99.90;;;;;;5138869;27;20082;-60
2021/09/24 02:06:39;;;;;;;13.75;4.35;;;13.70;99.90;;;;;;5146083;27;20138;-60
2021/09/24 02:09:08;;;;;;;21.80;5.05;;;13.80;99.90;;;;;;5121203;27;20487;-60
2021/09/24 02:11:34;;;;;;;15.35;4.45;;;13.80;99.90;;;;;;5140012;27;20502;-61
2021/09/24 02:14:00;;;;;;;14.35;4.53;;;13.80;99.90;;;;;;5141091;27;20039;-61
2021/09/24 02:16:27;;;;;;;20.02;5.32;;;13.80;99.90;;;;;;5124769;27;20051;-62
2021/09/24 02:18:54;;;;;;;15.57;4.57;;;13.80;99.90;;;;;;5142433;27;20471;-61
2021/09/24 02:21:20;;;;;;;17.88;4.18;;;13.80;99.90;;;;;;5144041;27;20129;-60
2021/09/24 02:23:46;;;;;;;12.38;4.13;;;13.80;99.90;;;;;;5143178;27;20756;-61
2021/09/24 02:26:12;;;;;;;10.90;4.32;;;13.90;99.90;;;;;;5121846;27;20057;-61
2021/09/24 02:28:38;;;;;;;12.48;4.35;;;13.80;99.90;;;;;;5140486;27;20051;-61
2021/09/24 02:31:08;;;;;;;15.68;4.40;;;13.90;99.90;;;;;;5127261;27;20507;-60
2021/09/24 02:33:39;;;;;;;13.18;4.68;;;13.90;99.90;;;;;;5142699;27;20107;-58
2021/09/24 02:36:09;;;;;;;13.63;4.95;;;14.00;99.90;;;;;;5139662;27;20158;-61
2021/09/24 02:38:37;;;;;;;12.40;4.15;;;14.00;99.90;;;;;;5137778;27;20043;-60
2021/09/24 02:41:04;;;;;;;10.48;3.38;;;14.00;99.90;;;;;;5116941;27;20522;-61
2021/09/24 02:43:31;;;;;;;17.15;5.55;;;14.00;99.90;;;;;;5139300;27;20146;-60
2021/09/24 02:45:58;;;;;;;14.07;3.92;;;14.00;99.90;;;;;;5141931;27;20213;-61
2021/09/24 02:48:24;;;;;;;11.27;3.90;;;14.00;99.90;;;;;;5142138;27;20043;-61
2021/09/24 02:50:50;;;;;;;14.10;4.28;;;14.10;99.90;;;;;;5140645;27;20057;-61
2021/09/24 02:53:16;;;;;;;19.00;4.72;;;14.10;99.90;;;;;;5136031;27;20114;-61
2021/09/24 02:55:42;;;;;;;13.82;4.53;;;14.10;99.90;;;;;;5142908;27;20054;-61
2021/09/24 02:58:08;;;;;;;13.93;4.50;;;14.10;99.90;;;;;;5120283;27;20055;-61
2021/09/24 03:00:37;;;;;;;14.05;4.22;;;14.10;99.90;;;;;;5138441;27;20051;-60
2021/09/24 03:03:06;;;;;;;14.45;4.47;;;14.20;99.90;;;;;;5138466;27;20091;-61
2021/09/24 03:05:32;;;;;;;13.77;4.70;;;14.20;99.90;;;;;;5140743;27;20059;-61
2021/09/24 03:07:58;;;;;;;14.65;4.25;;;14.20;99.90;;;;;;5140718;27;20050;-61
2021/09/24 03:10:25;;;;;;;12.75;4.32;;;14.20;99.90;;;;;;5143411;27;20047;-62
2021/09/24 03:12:53;;;;;;;13.35;4.38;;;14.20;99.90;;;;;;5124101;27;20047;-61
2021/09/24 03:15:19;;;;;;;13.88;4.53;;;14.20;99.90;;;;;;5139617;27;20054;-58
2021/09/24 03:17:45;;;;;;;13.68;3.88;;;14.30;99.90;;;;;;5143323;27;20054;-59
2021/09/24 03:20:15;;;;;;;10.98;4.32;;;14.20;99.90;;;;;;5138196;27;20422;-59
2021/09/24 03:22:41;;;;;;;16.48;4.60;;;14.30;99.90;;;;;;5122850;27;20050;-59
2021/09/24 03:25:08;;;;;;;13.48;4.85;;;14.30;99.90;;;;;;5141192;27;20050;-59
2021/09/24 03:27:35;;;;;;;15.95;4.97;;;14.30;99.90;;;;;;5139767;27;20047;-59
2021/09/24 03:30:03;;;;;;;15.05;4.03;;;14.30;99.90;;;;;;5137454;27;20058;-60
2021/09/24 03:32:29;;;;;;;13.93;5.03;;;14.30;99.90;;;;;;5136755;27;20054;-59
2021/09/24 03:34:55;;;;;;;16.83;4.30;;;14.30;99.90;;;;;;5140839;27;20051;-59
2021/09/24 03:37:21;;;;;;;12.50;4.53;;;14.40;99.90;;;;;;5140456;27;20070;-59
2021/09/24 03:39:47;;;;;;;15.68;4.50;;;14.40;99.90;;;;;;5140135;27;20043;-58
2021/09/24 03:42:13;;;;;;;17.27;4.60;;;14.40;99.90;;;;;;5141268;27;20088;-58
2021/09/24 03:44:39;;;;;;;13.23;4.80;;;14.40;99.90;;;;;;5125283;27;20487;-61
2021/09/24 03:47:06;;;;;;;16.52;5.13;;;14.40;99.90;;;;;;5138944;27;20050;-62
2021/09/24 03:49:32;;;;;;;12.38;4.95;;;14.40;99.90;;;;;;5132301;27;20065;-59
2021/09/24 03:52:00;;;;;;;15.40;4.80;;;14.40;99.90;;;;;;5139683;27;20055;-60
2021/09/24 03:54:26;;;;;;;15.38;4.63;;;14.40;99.90;;;;;;5136662;27;20130;-60
2021/09/24 03:56:52;;;;;;;14.73;4.40;;;14.50;99.90;;;;;;5143463;27;20046;-60
2021/09/24 03:59:21;;;;;;;11.50;4.03;;;14.50;99.90;;;;;;5136979;27;20080;-60
2021/09/24 04:01:47;;;;;;;12.30;3.80;;;14.50;99.90;;;;;;5145131;27;20062;-59
2021/09/24 04:04:13;;;;;;;13.98;4.05;;;14.50;99.90;;;;;;5146304;27;20118;-60
2021/09/24 04:06:44;;;;;;;14.75;3.10;;;14.50;99.90;;;;;;5140949;27;20051;-60
2021/09/24 04:09:11;;;;;;;9.90;3.13;;;14.60;99.90;;;;;;5146077;27;20066;-60
2021/09/24 04:11:40;;;;;;;12.15;2.97;;;14.50;99.90;;;;;;5143853;27;20589;-60
2021/09/24 04:14:08;;;;;;;11.60;2.97;;;14.50;99.90;;;;;;5143033;27;20047;-62
2021/09/24 04:16:34;;;;;;;12.00;3.65;;;14.50;99.90;;;;;;5138818;27;20054;-60
2021/09/24 04:19:00;;;;;;;13.32;2.95;;;14.50;99.90;;;;;;5144350;27;20062;-60
2021/09/24 04:21:26;;;;;;;10.65;2.75;;;14.60;99.90;;;;;;5141137;27;20065;-61
2021/09/24 04:23:52;;;;;;;11.55;2.95;;;14.60;99.90;;;;;;5124827;27;20530;-59
2021/09/24 04:26:18;;;;;;;11.65;3.65;;;14.60;99.90;;;;;;5142252;27;20678;-60
2021/09/24 04:28:47;;;;;;;11.95;3.50;;;14.50;99.90;;;;;;5143138;27;20050;-60
2021/09/24 04:31:14;;;;;;;8.80;2.78;;;14.60;99.90;;;;;;5137203;27;20134;-62
2021/09/24 04:33:43;;;;;;;11.77;3.10;;;14.60;99.90;;;;;;5148866;27;20054;-60
2021/09/24 04:36:09;;;;;;;14.98;3.50;;;14.60;99.90;;;;;;5145407;27;20054;-59
2021/09/24 04:38:35;;;;;;;11.07;3.28;;;14.60;99.90;;;;;;5147652;27;20088;-60
2021/09/24 04:41:02;;;;;;;10.25;3.03;;;14.60;99.90;;;;;;5140937;27;20124;-59
2021/09/24 04:43:30;;;;;;;12.05;3.78;;;14.70;99.90;;;;;;5126955;27;20051;-60
2021/09/24 04:45:56;;;;;;;13.65;4.07;;;14.70;99.90;;;;;;5138379;27;20051;-60
2021/09/24 04:48:22;;;;;;;15.50;3.97;;;14.60;99.90;;;;;;5142776;27;20051;-61
2021/09/24 04:50:48;;;;;;;15.32;4.40;;;14.70;99.90;;;;;;5145464;27;20115;-60
2021/09/24 04:53:14;;;;;;;15.65;3.80;;;14.60;99.90;;;;;;5147083;27;20054;-60
2021/09/24 04:55:40;;;;;;;14.95;4.15;;;14.70;99.90;;;;;;5137061;27;20176;-61
2021/09/24 04:58:06;;;;;;;13.23;3.95;;;14.70;99.90;;;;;;5140985;27;20058;-60
2021/09/24 05:00:33;;;;;;;12.45;3.70;;;14.70;99.90;;;;;;5125394;27;20171;-59
2021/09/24 05:02:59;;;;;;;12.90;3.75;;;14.70;99.90;;;;;;5150463;27;20058;-60
2021/09/24 05:05:26;;;;;;;18.15;5.07;;;14.70;99.90;;;;;;5125720;27;20054;-60
2021/09/24 05:07:52;;;;;;;12.60;4.00;;;14.70;99.90;;;;;;5143501;27;20047;-61
2021/09/24 05:10:19;;;;;;;15.00;4.15;;;14.70;99.90;;;;;;5131978;27;20061;-63
2021/09/24 05:12:45;;;;;;;14.38;4.75;;;14.70;99.90;;;;;;5137401;27;20051;-60
2021/09/24 05:15:12;;;;;;;16.70;5.03;;;14.70;99.90;;;;;;5146395;27;20062;-59
2021/09/24 05:17:41;;;;;;;15.68;4.90;;;14.80;99.90;;;;;;5152057;27;20075;-61
2021/09/24 05:20:10;;;;;;;15.93;5.38;;;14.80;99.90;;;;;;5152077;27;20061;-59
2021/09/24 05:22:36;;;;;;;14.60;5.38;;;14.80;99.90;;;;;;5140516;27;20050;-60
2021/09/24 05:25:04;;;;;;;19.02;5.05;;;14.80;99.90;;;;;;5119135;27;20043;-59
2021/09/24 05:27:30;;;;;;;11.68;5.40;;;14.80;99.90;;;;;;5142046;27;20055;-57
2021/09/24 05:29:59;;;;;;;102.47;84.75;;;14.90;99.90;;;;;;5141159;27;20073;-56
2021/09/24 05:32:26;;;;;;;44.90;34.20;;;14.80;99.90;;;;;;5143119;27;20051;-57
2021/09/24 05:34:52;;;;;;;34.92;20.23;;;14.90;99.90;;;;;;5142401;27;20791;-58
2021/09/24 05:37:20;;;;;;;23.85;12.30;;;14.90;99.90;;;;;;5150754;27;20103;-58
2021/09/24 05:39:46;;;;;;;25.83;16.30;;;14.90;99.90;;;;;;5152212;27;20047;-58
2021/09/24 05:42:14;;;;;;;45.80;32.20;;;14.80;99.90;;;;;;5133763;27;20522;-58
2021/09/24 05:44:40;;;;;;;22.73;12.55;;;14.90;99.90;;;;;;5151106;27;20104;-59
2021/09/24 05:47:08;;;;;;;18.70;6.15;;;14.90;99.90;;;;;;5150060;27;20502;-59
2021/09/24 05:49:34;;;;;;;17.73;8.10;;;14.80;99.90;;;;;;5151615;27;20051;-60
2021/09/24 05:52:01;;;;;;;13.38;5.18;;;14.80;99.90;;;;;;5152532;27;20061;-59
2021/09/24 05:54:28;;;;;;;12.70;5.30;;;14.80;99.90;;;;;;5151851;27;20158;-58
2021/09/24 05:56:55;;;;;;;18.00;6.75;;;14.90;99.90;;;;;;5151162;27;20091;-58
2021/09/24 05:59:21;;;;;;;78.47;69.32;;;14.80;99.90;;;;;;5152240;27;20506;-61
2021/09/24 06:01:48;;;;;;;29.58;17.65;;;14.80;99.90;;;;;;5137312;27;20076;-61
2021/09/24 06:04:18;;;;;;;25.23;15.02;;;14.80;99.90;;;;;;5151816;27;20046;-61
2021/09/24 06:06:47;;;;;;;25.63;15.82;;;14.80;99.90;;;;;;5150023;27;20118;-60
2021/09/24 06:09:16;;;;;;;26.75;16.55;;;14.80;99.90;;;;;;5151927;27;20146;-60
2021/09/24 06:11:42;;;;;;;19.75;12.02;;;14.80;99.90;;;;;;5152175;27;20129;-60
2021/09/24 06:14:08;;;;;;;24.52;16.55;;;14.80;99.90;;;;;;5151259;27;20047;-61
2021/09/24 06:16:35;;;;;;;15.50;6.15;;;14.80;99.90;;;;;;5151170;27;20135;-58
2021/09/24 06:19:05;;;;;;;47.95;39.22;;;14.80;99.90;;;;;;5150943;27;20050;-60
2021/09/24 06:21:32;;;;;;;25.13;15.25;;;14.80;99.90;;;;;;5149784;27;20530;-62
2021/09/24 06:24:01;;;;;;;20.95;8.25;;;14.90;99.90;;;;;;5132109;27;20042;-61
2021/09/24 06:26:30;;;;;;;27.73;13.52;;;14.80;99.90;;;;;;5149889;27;20050;-62
2021/09/24 06:28:59;;;;;;;13.10;6.18;;;14.80;99.90;;;;;;5151394;27;20494;-61
2021/09/24 06:31:25;;;;;;;13.77;5.68;;;14.90;99.90;;;;;;5151091;27;20137;-61
2021/09/24 06:33:52;;;;;;;15.80;5.60;;;14.90;99.90;;;;;;5150852;27;20506;-61
2021/09/24 06:36:22;;;;;;;15.68;7.25;;;14.90;99.90;;;;;;5149235;27;20050;-61
2021/09/24 06:38:52;;;;;;;12.85;4.85;;;14.90;99.90;;;;;;5143128;27;20142;-61
2021/09/24 06:41:21;;;;;;;14.88;6.15;;;14.90;99.90;;;;;;5141307;27;20751;-59
2021/09/24 06:43:47;;;;;;;18.17;9.00;;;14.90;99.90;;;;;;5142384;27;20055;-58
2021/09/24 06:46:15;;;;;;;12.18;4.95;;;15.00;99.90;;;;;;5137840;27;20170;-60
2021/09/24 06:48:42;;;;;;;11.88;4.82;;;15.00;99.90;;;;;;5102486;27;20047;-59
2021/09/24 06:51:08;;;;;;;15.32;4.55;;;15.00;99.90;;;;;;5146304;27;20125;-59
2021/09/24 06:53:37;;;;;;;13.52;4.05;;;15.00;99.90;;;;;;5147877;27;20478;-59
2021/09/24 06:56:03;;;;;;;10.93;4.45;;;15.00;99.90;;;;;;5150393;27;20142;-60
2021/09/24 06:58:32;;;;;;;15.43;4.38;;;15.00;99.90;;;;;;5132190;27;20051;-60
2021/09/24 07:00:59;;;;;;;16.70;4.80;;;15.00;99.90;;;;;;5115308;27;20049;-60
2021/09/24 07:03:26;;;;;;;9.25;4.60;;;15.10;99.90;;;;;;5150585;27;20053;-59
2021/09/24 07:05:52;;;;;;;14.57;4.80;;;15.10;99.90;;;;;;5150805;27;20388;-59
2021/09/24 07:08:20;;;;;;;13.63;4.30;;;15.20;99.90;;;;;;5150547;27;20134;-59
2021/09/24 07:10:46;;;;;;;13.15;5.65;;;15.20;99.90;;;;;;5150141;27;20058;-60
2021/09/24 07:13:12;;;;;;;11.30;4.75;;;15.20;99.90;;;;;;5148816;27;20130;-61
2021/09/24 07:15:43;;;;;;;11.07;4.95;;;15.30;99.90;;;;;;5149955;27;20057;-60
2021/09/24 07:18:10;;;;;;;10.43;4.28;;;15.40;99.90;;;;;;5149825;27;20073;-59
2021/09/24 07:20:37;;;;;;;13.50;5.18;;;15.40;99.90;;;;;;5150179;27;20051;-59
2021/09/24 07:23:03;;;;;;;13.43;4.72;;;15.40;99.90;;;;;;5137482;27;20122;-60
2021/09/24 07:25:30;;;;;;;12.30;4.95;;;15.40;99.90;;;;;;5130049;27;20481;-60
2021/09/24 07:27:56;;;;;;;15.02;4.90;;;15.40;99.90;;;;;;5136760;27;20046;-60
2021/09/24 07:30:24;;;;;;;11.27;5.03;;;15.50;99.90;;;;;;5151514;27;20046;-58
2021/09/24 07:32:50;;;;;;;11.00;4.47;;;15.50;99.90;;;;;;5147922;27;20054;-61
2021/09/24 07:35:16;;;;;;;10.80;4.75;;;15.50;99.90;;;;;;5133701;27;20553;-61
2021/09/24 07:37:42;;;;;;;12.02;4.72;;;15.50;99.90;;;;;;5151937;27;20094;-59
2021/09/24 07:40:09;;;;;;;7.55;4.22;;;15.50;99.90;;;;;;5151209;27;20106;-59
2021/09/24 07:42:35;;;;;;;9.25;4.32;;;15.50;99.90;;;;;;5151315;27;20051;-60
2021/09/24 07:45:02;;;;;;;11.25;4.60;;;15.50;99.90;;;;;;5151238;27;20150;-59
2021/09/24 07:47:28;;;;;;;11.57;4.72;;;15.50;99.90;;;;;;5146240;27;20184;-59
2021/09/24 07:49:54;;;;;;;14.23;4.72;;;15.60;99.90;;;;;;5130356;28;20055;-58
2021/09/24 07:52:20;;;;;;;9.25;4.30;;;15.60;99.90;;;;;;5149649;27;20404;-59
2021/09/24 07:54:46;;;;;;;14.35;4.10;;;15.60;99.90;;;;;;5149913;27;20084;-60
2021/09/24 07:57:13;;;;;;;11.25;4.32;;;15.60;99.90;;;;;;5149602;27;20487;-60
2021/09/24 07:59:41;;;;;;;9.68;4.63;;;15.60;99.90;;;;;;5149140;27;20051;-59
2021/09/24 08:02:13;;;;;;;12.23;4.35;;;15.60;99.90;;;;;;5150403;27;20126;-59
2021/09/24 08:04:39;;;;;;;9.82;4.60;;;15.60;99.90;;;;;;5149917;27;20152;-60
2021/09/24 08:07:08;;;;;;;10.88;4.82;;;15.70;99.90;;;;;;5149881;27;20051;-61
2021/09/24 08:09:35;;;;;;;9.95;4.32;;;15.70;99.90;;;;;;5149244;27;20107;-58
2021/09/24 08:12:08;;;;;;;13.15;6.85;;;15.70;99.90;;;;;;5145701;27;20046;-63
2021/09/24 08:14:37;;;;;;;84.53;75.63;;;15.80;99.90;;;;;;5129545;27;20047;-53
2021/09/24 08:17:03;;;;;;;28.25;23.50;;;15.80;99.90;;;;;;5143450;27;20475;-53
2021/09/24 08:19:30;;;;;;;27.98;21.90;;;15.90;99.90;;;;;;5146166;27;20133;-51
2021/09/24 08:21:56;;;;;;;13.70;9.50;;;15.90;99.90;;;;;;5112407;27;20046;-52
2021/09/24 08:24:22;;;;;;;12.48;6.90;;;15.90;99.90;;;;;;5141402;27;20049;-51
2021/09/24 08:26:48;;;;;;;28.30;22.80;;;15.90;99.90;;;;;;5144884;27;20156;-57
2021/09/24 08:29:17;;;;;;;31.90;25.25;;;16.00;99.90;;;;;;5146584;27;20542;-56
2021/09/24 08:31:43;;;;;;;19.27;10.05;;;16.00;99.90;;;;;;5147972;27;20521;-49
2021/09/24 08:34:09;;;;;;;13.27;8.40;;;16.00;99.90;;;;;;5148710;27;20387;-52
2021/09/24 08:36:35;;;;;;;21.65;16.60;;;16.10;99.90;;;;;;5128808;27;20047;-50
2021/09/24 08:39:01;;;;;;;14.65;9.40;;;16.10;99.90;;;;;;5147355;27;20051;-62
2021/09/24 08:41:30;;;;;;;12.65;7.18;;;16.10;99.90;;;;;;5129579;27;20053;-63
2021/09/24 08:43:58;;;;;;;21.58;15.80;;;16.20;99.90;;;;;;5144412;27;20038;-61
2021/09/24 08:46:26;;;;;;;13.93;5.95;;;16.20;99.90;;;;;;5137802;27;20082;-60
2021/09/24 08:48:55;;;;;;;10.90;5.47;;;16.20;99.90;;;;;;5145505;27;20085;-60
2021/09/24 08:51:21;;;;;;;10.45;6.07;;;16.20;99.90;;;;;;5142051;27;20055;-60
2021/09/24 08:53:48;;;;;;;12.38;6.60;;;16.20;99.90;;;;;;5144878;27;20571;-60
2021/09/24 08:56:14;;;;;;;16.58;7.28;;;16.20;99.90;;;;;;5151827;27;20043;-61
2021/09/24 08:58:40;;;;;;;14.30;7.15;;;16.20;99.90;;;;;;5146520;27;20111;-61
2021/09/24 09:01:06;;;;;;;13.60;7.53;;;16.30;99.90;;;;;;5150125;27;20489;-60
2021/09/24 09:03:44;;;;;;;16.42;7.30;;;16.30;99.90;;;;;;5138992;27;20070;-60
2021/09/24 09:06:15;;;;;;;16.48;8.00;;;16.30;99.90;;;;;;5138782;27;20062;-60
2021/09/24 09:08:43;;;;;;;14.10;7.68;;;16.40;99.90;;;;;;5134228;27;20528;-60
2021/09/24 09:11:18;;;;;;;11.65;8.13;;;16.40;99.90;;;;;;5134426;27;20522;-60
2021/09/24 09:13:53;;;;;;;13.02;8.98;;;16.40;99.90;;;;;;5145331;27;20047;-60
2021/09/24 09:16:22;;;;;;;15.43;8.90;;;16.50;99.90;;;;;;5152814;27;20082;-60
2021/09/24 09:19:02;;;;;;;16.02;9.98;;;16.50;99.90;;;;;;5148304;27;20125;-60
2021/09/24 09:21:28;;;;;;;14.75;9.65;;;16.60;99.90;;;;;;5114460;27;20062;-59
2021/09/24 09:23:55;;;;;;;16.55;10.90;;;16.70;99.90;;;;;;5145114;27;20440;-59
2021/09/24 09:26:25;;;;;;;12.90;9.00;;;16.70;99.90;;;;;;5146587;27;20046;-59
2021/09/24 09:28:54;;;;;;;15.80;9.85;;;16.80;99.90;;;;;;5150723;27;20050;-59
2021/09/24 09:31:27;;;;;;;16.42;10.27;;;16.90;99.90;;;;;;5151619;27;20078;-60
2021/09/24 09:33:59;;;;;;;13.43;10.02;;;16.90;99.90;;;;;;5148572;27;20053;-57
2021/09/24 09:36:27;;;;;;;17.80;11.20;;;16.90;99.90;;;;;;5148603;27;20792;-61
2021/09/24 09:38:55;;;;;;;30.25;27.15;;;17.00;99.90;;;;;;5147637;27;20057;-62
2021/09/24 09:41:29;;;;;;;17.90;12.80;;;17.10;99.90;;;;;;5146379;27;20502;-64
2021/09/24 09:44:04;;;;;;;20.08;16.92;;;17.10;99.90;;;;;;5150511;27;20426;-61
2021/09/24 09:46:34;;;;;;;21.52;16.25;;;17.20;99.90;;;;;;5144653;27;20525;-60
2021/09/24 09:49:03;;;;;;;35.20;31.38;;;17.20;99.90;;;;;;5125896;27;20047;-59
2021/09/24 09:51:36;;;;;;;20.55;15.45;;;17.30;99.90;;;;;;5146484;27;20803;-61
2021/09/24 09:54:09;;;;;;;17.88;15.35;;;17.40;99.90;;;;;;5141416;27;20597;-60
2021/09/24 09:56:40;;;;;;;16.58;11.80;;;17.40;99.90;;;;;;5147940;27;20106;-59
2021/09/24 09:59:34;;;;;;;22.75;15.18;;;17.40;99.90;;;;;;5146836;27;20497;-60
2021/09/24 10:02:23;;;;;;;15.13;13.13;;;17.50;99.90;;;;;;5143990;27;20054;-60
2021/09/24 10:04:52;;;;;;;18.70;14.32;;;17.50;99.90;;;;;;5144762;27;20096;-60
2021/09/24 10:07:23;;;;;;;17.00;12.10;;;17.60;99.90;;;;;;5138813;27;20092;-60
2021/09/24 10:10:04;;;;;;;20.15;13.55;;;17.60;99.90;;;;;;5144215;27;20119;-61
2021/09/24 10:12:30;;;;;;;20.27;13.98;;;17.60;99.90;;;;;;5130889;27;20053;-61
2021/09/24 10:14:56;;;;;;;23.98;16.50;;;17.70;99.90;;;;;;5149885;27;20221;-61
2021/09/24 10:17:25;;;;;;;18.52;14.13;;;17.80;99.90;;;;;;5150034;27;20050;-61
2021/09/24 10:19:54;;;;;;;18.63;16.58;;;17.80;99.90;;;;;;5148943;27;20050;-62
2021/09/24 10:22:24;;;;;;;25.55;16.27;;;17.90;99.90;;;;;;5148263;27;20062;-61
2021/09/24 10:24:55;;;;;;;22.13;16.70;;;17.90;99.90;;;;;;5130887;27;20050;-61
2021/09/24 10:27:29;;;;;;;23.63;17.40;;;18.00;99.90;;;;;;5150510;27;20050;-62
2021/09/24 10:30:07;;;;;;;22.13;16.67;;;18.00;99.90;;;;;;5146860;27;20098;-60
2021/09/24 10:32:36;;;;;;;27.42;20.88;;;18.20;99.90;;;;;;5147100;27;20062;-62
2021/09/24 10:35:11;;;;;;;32.72;23.67;;;18.20;99.90;;;;;;5149895;27;20059;-61
2021/09/24 10:37:40;;;;;;;23.98;19.10;;;18.20;99.90;;;;;;5148606;27;20051;-62
2021/09/24 10:40:22;;;;;;;25.90;20.40;;;18.30;99.90;;;;;;5148798;27;20112;-63
2021/09/24 10:42:57;;;;;;;31.48;21.25;;;18.30;99.90;;;;;;5146909;27;20054;-63
2021/09/24 10:45:31;;;;;;;25.90;18.23;;;18.40;99.90;;;;;;5129001;27;20368;-62
2021/09/24 10:48:05;;;;;;;25.77;20.27;;;18.50;99.90;;;;;;5150027;27;20494;-61
2021/09/24 10:50:36;;;;;;;30.23;22.80;;;18.50;99.90;;;;;;5111210;27;20064;-61
2021/09/24 10:53:09;;;;;;;26.13;18.92;;;18.50;99.90;;;;;;5149537;27;20051;-60
2021/09/24 10:56:01;;;;;;;24.02;19.05;;;18.70;99.90;;;;;;5140415;27;20058;-60
2021/09/24 10:58:45;;;;;;;27.15;19.05;;;18.70;99.90;;;;;;5135931;27;20122;-61
2021/09/24 11:01:28;;;;;;;;;;;18.80;99.90;;;;;;5142162;27;20050;-60
2021/09/24 11:04:02;;;;;;;23.00;17.42;;;18.80;99.90;;;;;;5140483;27;19923;-62
2021/09/24 11:07:00;;;;;;;25.58;17.55;;;19.00;99.90;;;;;;5151075;27;20129;-62
2021/09/24 11:09:29;;;;;;;20.35;15.75;;;19.20;99.90;;;;;;5148977;27;20570;-61
2021/09/24 11:12:07;;;;;;;21.13;15.57;;;19.20;99.90;;;;;;5137927;27;20630;-62
2021/09/24 11:14:42;;;;;;;23.45;17.30;;;19.20;99.90;;;;;;5146763;27;20051;-63
2021/09/24 11:17:33;;;;;;;22.50;16.65;;;19.30;99.90;;;;;;5133941;27;20055;-62
2021/09/24 11:20:39;;;;;;;22.27;16.70;;;19.30;99.90;;;;;;5047187;28;20057;-61
2021/09/24 11:23:32;;;;;;;23.50;17.20;;;19.50;99.90;;;;;;5056290;28;20084;-62
2021/09/24 11:26:22;;;;;;;21.77;16.75;;;19.70;99.90;;;;;;5026150;28;20060;-60
2021/09/24 11:29:05;;;;;;;25.17;17.30;;;19.80;99.90;;;;;;5021302;28;20063;-63
2021/09/24 11:31:56;;;;;;;22.40;14.57;;;19.90;99.90;;;;;;5051750;28;20060;-60
2021/09/24 11:34:42;;;;;;;23.58;14.50;;;20.00;99.90;;;;;;5057292;28;20056;-60
2021/09/24 11:37:14;;;;;;;17.52;13.18;;;20.30;99.90;;;;;;5054236;28;20140;-58
2021/09/24 11:39:48;;;;;;;18.52;14.50;;;20.60;99.90;;;;;;5023471;28;20062;-60
2021/09/24 11:42:16;;;;;;;21.05;12.70;;;20.80;99.90;;;;;;5056560;28;20098;-60
2021/09/24 11:44:52;;;;;;;18.63;12.18;;;21.20;99.90;;;;;;5059579;28;20522;-62
2021/09/24 11:47:30;;;;;;;17.88;12.30;;;21.80;99.90;;;;;;5060328;28;20060;-60
2021/09/24 11:50:03;;;;;;;18.15;10.68;;;22.10;99.90;;;;;;4997755;28;20053;-61
2021/09/24 11:52:47;;;;;;;13.88;8.55;;;21.80;99.90;;;;;;5056463;28;20059;-62
2021/09/24 11:55:18;;;;;;;15.27;10.20;;;21.60;99.90;;;;;;5059026;28;20461;-60
2021/09/24 11:58:07;;;;;;;;;;;21.80;99.90;;;;;;5113510;28;20134;-58
2021/09/24 12:00:44;;;;;;;11.43;8.02;;;22.70;99.90;;;;;;5146837;27;20526;-59
2021/09/24 12:03:22;;;;;;;10.10;6.40;;;22.70;99.90;;;;;;5148773;27;20049;-57
2021/09/24 12:06:08;;;;;;;9.68;6.45;;;23.30;99.90;;;;;;5140924;27;20051;-59
2021/09/24 12:08:45;;;;;;;16.02;10.13;;;23.20;99.90;;;;;;5131916;27;20142;-59
2021/09/24 12:11:17;;;;;;;16.17;10.55;;;23.30;99.90;;;;;;5140007;27;20089;-58
2021/09/24 12:14:00;;;;;;;10.18;6.80;;;22.80;99.90;;;;;;5146515;27;20134;-59
2021/09/24 12:16:39;;;;;;;12.63;7.00;;;22.60;99.90;;;;;;5144362;27;20200;-59
2021/09/24 12:19:10;;;;;;;13.52;7.50;;;22.20;99.90;;;;;;5144681;27;20812;-60
2021/09/24 12:21:48;;;;;;;;;;;22.40;99.90;;;;;;5146491;27;20074;-60
2021/09/24 12:24:37;;;;;;;9.10;4.68;;;22.20;99.90;;;;;;5149266;27;19991;-60
2021/09/24 12:27:09;;;;;;;6.78;3.20;;;22.00;99.90;;;;;;5132704;27;20038;-62
2021/09/24 12:29:39;;;;;;;13.13;8.32;;;21.90;99.90;;;;;;5152123;27;20418;-61
2021/09/24 12:32:11;;;;;;;10.43;4.57;;;21.80;99.90;;;;;;5151977;27;20467;-61
2021/09/24 12:35:07;;;;;;;8.88;5.10;;;21.70;99.90;;;;;;5151379;27;20684;-62
2021/09/24 12:37:43;;;;;;;10.05;5.72;;;21.80;99.90;;;;;;5152321;27;20047;-60
2021/09/24 12:40:19;;;;;;;9.30;6.07;;;21.70;99.90;;;;;;5149610;27;20179;-65
2021/09/24 12:42:49;;;;;;;10.18;4.88;;;21.60;99.90;;;;;;5150832;27;20042;-63
2021/09/24 12:45:27;;;;;;;12.80;6.88;;;21.50;99.90;;;;;;5147127;27;20053;-64
2021/09/24 12:48:15;;;;;;;9.60;5.28;;;21.40;99.90;;;;;;5145235;27;20051;-64